Flight Track Log - Related Links

Times and Time Zones

All times are in EDT time to prevent confusion due to time zone crossing. See the N45NS flight status page for this flight to view local times or setup timezone preferences in your user account.

Time Position Orientation Groundspeed Altitude Reporting Facility
EDT Latitude Longitude Course Direction KTS MPH feet Rate Location/Type
Mon 01:56:02 PM 42.0950 -87.5230 313° West 100 115 10,400  Level FlightAware ADS-B
Mon 01:56:50 PM 42.0650 -87.4330 114° Southeast 317 365 13,700 2,944 Climbing FlightAware ADS-B
Mon 01:57:50 PM 42.0280 -87.3170 113° Southeast 369 425 15,700 2,244 Climbing FlightAware ADS-B
Mon 01:59:01 PM 41.9760 -87.1540 113° Southeast 377 434 18,600 2,629 Climbing FlightAware ADS-B
Mon 01:59:35 PM 41.9600 -87.0740 105° East 396 456 20,300 2,697 Climbing FlightAware ADS-B
Mon 02:00:30 PM 41.9460 -86.9380 98° East 430 495 22,600 2,463 Climbing FlightAware ADS-B
Mon 02:01:10 PM 41.9330 -86.8290 99° East 417 480 24,200 2,325 Climbing FlightAware ADS-B
Mon 02:01:50 PM 41.9210 -86.7260 99° East 425 489 25,700 2,100 Climbing FlightAware ADS-B
Mon 02:02:30 PM 41.9090 -86.6180 98° East 446 513 27,000 1,500 Climbing FlightAware ADS-B
Mon 02:03:06 PM 41.8960 -86.5240 100° East 443 510 27,600 1,425 Climbing FlightAware ADS-B
Mon 02:03:50 PM 41.8820 -86.4020 99° East 454 522 28,900 1,063 Climbing FlightAware ADS-B
Mon 02:04:25 PM 41.8680 -86.3000 100° East 465 535 29,000 92 Climbing FlightAware ADS-B
Mon 02:04:55 PM 41.8570 -86.2110 99° East 489 563 29,000  Level FlightAware ADS-B
Mon 02:05:45 PM 41.8360 -86.0560 100° East 484 557 29,000  Level FlightAware ADS-B
Mon 02:06:20 PM 41.8240 -85.9570 99° East 474 545 29,000  Level FlightAware ADS-B
Mon 02:07:20 PM 41.8010 -85.7740 100° East 505 581 29,000  Level FlightAware ADS-B
Mon 02:08:00 PM 41.7890 -85.6700 99° East 452 520 29,000  Level FlightAware ADS-B
Mon 02:08:30 PM 41.7740 -85.5730 102° East 482 555 29,000  Level FlightAware ADS-B
Mon 02:09:25 PM 41.7520 -85.4050 100° East 487 560 29,000  Level FlightAware ADS-B
Mon 02:10:10 PM 41.7320 -85.2540 100° East 459 528 29,000  Level FlightAware ADS-B
Mon 02:10:45 PM 41.7200 -85.1710 101° East 494 568 29,000  Level FlightAware ADS-B
Mon 02:11:34 PM 41.6950 -85.0470 105° East 494 568 29,000  Level FlightAware ADS-B
Mon 02:12:11 PM 41.6860 -84.9280 96° East 494 568 29,000  Level FlightAware ADS-B
Mon 02:12:47 PM 41.6740 -84.8360 100° East 494 568 29,000  Level FlightAware ADS-B
Mon 02:13:11 PM 41.6660 -84.7750 100° East 494 568 29,000  Level FlightAware ADS-B
Mon 02:13:47 PM 41.6310 -84.6440 110° East 494 568 29,000  Level FlightAware ADS-B
Mon 02:14:35 PM 41.6100 -84.5230 103° East 494 568 29,000  Level FlightAware ADS-B
Mon 02:15:00 PM 41.5990 -84.4600 103° East 494 568 29,000  Level FlightAware ADS-B
Mon 02:15:47 PM 41.5780 -84.3410 103° East 494 568 29,000  Level FlightAware ADS-B
Mon 02:16:11 PM 41.5680 -84.2800 102° East 494 568 29,000  Level FlightAware ADS-B
Mon 02:16:48 PM 41.5510 -84.1860 104° East 494 568 29,000 -1,690 Level FlightAware ADS-B
Mon 02:17:22 PM 41.3994 -84.0303 104° East 481 554 27,000 -1,875 Descending Cleveland Center
Mon 02:18:24 PM 41.3422 -83.8736 116° Southeast 475 547 26,000 -1,065 Descending Cleveland Center
Mon 02:19:26 PM 41.2750 -83.6881 116° Southeast 468 539 24,800 -1,065 Descending Cleveland Center
Mon 02:20:28 PM 41.2183 -83.5328 116° Southeast 470 541 23,800 -968 Descending Cleveland Center
Mon 02:21:30 PM 41.1625 -83.3797 116° Southeast 465 535 22,800 -1,306 Descending Cleveland Center
Mon 02:22:32 PM 41.1072 -83.2286 116° Southeast 460 529 21,100 -2,177 Descending Cleveland Center
Mon 02:23:34 PM 41.0472 -83.0683 116° Southeast 447 514 18,300 -2,710 Descending Cleveland Center
Mon 02:24:36 PM 40.9956 -82.9294 116° Southeast 425 489 15,500 -2,710 Descending Cleveland Center
Mon 02:25:38 PM 40.9478 -82.8011 116° Southeast 393 452 12,700 -2,565 Descending Cleveland Center
Mon 02:26:40 PM 40.9025 -82.6792 116° Southeast 376 433 10,200 -2,323 Descending Cleveland Center
Mon 02:27:42 PM 40.8664 -82.5575 111° Southeast 312 359 7,900 -2,129 Descending Cleveland Center
Mon 02:28:44 PM 40.8692 -82.4492 88° East 293 337 5,800 -1,403 Descending Cleveland Center
Mon 02:29:46 PM 40.8700 -82.3472 89° East 283 326 5,000 -823 Descending Cleveland Center
Mon 02:30:48 PM 40.8719 -82.2483 88° East 272 313 4,100 -629 Descending Cleveland Center
Mon 02:31:50 PM 40.8731 -82.1522 89° East 266 306 3,700 -532 Descending Cleveland Center
Mon 02:32:52 PM 40.8736 -82.0564 90° East 262 302 3,000 -336 Descending Cleveland Center
Mon 02:33:55 PM 40.8750 -81.9472 89° East 263 303 3,000  Level Cleveland Center

Login

Don't have an account? Register now (free) for customized features, flight alerts, and more!